Time;durP1;ratioP1;P1;durP2;ratioP2;P2;SDS_P1;SDS_P2;PMS_P1;PMS_P2;Temp;Humidity;BMP_temperature;BMP_pressure;BME280_temperature;BME280_humidity;BME280_pressure;Samples;Min_cycle;Max_cycle;Signal;HPM_P1;HPM_P2
2021/03/16 00:01:24;;;;;;;1.8;1.4;;;;;;;;;;;;;
2021/03/16 00:03:49;;;;;;;2.5;1.3;;;;;;;;;;;;;
2021/03/16 00:06:14;;;;;;;2.1;1.3;;;;;;;;;;;;;
2021/03/16 00:08:40;;;;;;;1.5;1;;;;;;;;;;;;;
2021/03/16 00:11:09;;;;;;;1.2;1.1;;;;;;;;;;;;;
2021/03/16 00:13:34;;;;;;;1.8;1.4;;;;;;;;;;;;;
2021/03/16 00:16:02;;;;;;;1.1;1;;;;;;;;;;;;;
2021/03/16 00:18:29;;;;;;;0.7;0.7;;;;;;;;;;;;;
2021/03/16 00:20:54;;;;;;;1.3;1.2;;;;;;;;;;;;;
2021/03/16 00:23:20;;;;;;;2.2;1.1;;;;;;;;;;;;;
2021/03/16 00:25:45;;;;;;;1.5;1.1;;;;;;;;;;;;;
2021/03/16 00:28:11;;;;;;;1.4;1;;;;;;;;;;;;;
2021/03/16 00:30:36;;;;;;;0.9;0.9;;;;;;;;;;;;;
2021/03/16 00:33:01;;;;;;;0.9;0.7;;;;;;;;;;;;;
2021/03/16 00:35:26;;;;;;;1.2;0.9;;;;;;;;;;;;;
2021/03/16 00:37:52;;;;;;;1;0.9;;;;;;;;;;;;;
2021/03/16 00:40:18;;;;;;;1.7;1.2;;;;;;;;;;;;;
2021/03/16 00:42:44;;;;;;;1.2;0.8;;;;;;;;;;;;;
2021/03/16 00:45:09;;;;;;;1.1;0.8;;;;;;;;;;;;;
2021/03/16 00:47:35;;;;;;;1.1;0.8;;;;;;;;;;;;;
2021/03/16 00:50:00;;;;;;;0.9;0.8;;;;;;;;;;;;;
2021/03/16 00:52:26;;;;;;;0.6;0.6;;;;;;;;;;;;;
2021/03/16 00:54:51;;;;;;;1;0.7;;;;;;;;;;;;;
2021/03/16 00:57:17;;;;;;;0.3;0.3;;;;;;;;;;;;;
2021/03/16 00:59:42;;;;;;;0.5;0.4;;;;;;;;;;;;;
2021/03/16 01:02:08;;;;;;;0.4;0.3;;;;;;;;;;;;;
2021/03/16 01:04:33;;;;;;;0.3;0.3;;;;;;;;;;;;;
2021/03/16 01:06:58;;;;;;;0.4;0.4;;;;;;;;;;;;;
2021/03/16 01:09:23;;;;;;;0.3;0.3;;;;;;;;;;;;;
2021/03/16 01:11:49;;;;;;;0.3;0.3;;;;;;;;;;;;;
2021/03/16 01:14:14;;;;;;;0.3;0.3;;;;;;;;;;;;;
2021/03/16 01:16:39;;;;;;;0.4;0.4;;;;;;;;;;;;;
2021/03/16 01:19:05;;;;;;;0.5;0.5;;;;;;;;;;;;;
2021/03/16 01:21:30;;;;;;;0.2;0.2;;;;;;;;;;;;;
2021/03/16 01:23:56;;;;;;;0.7;0.6;;;;;;;;;;;;;
2021/03/16 01:26:21;;;;;;;0.4;0.4;;;;;;;;;;;;;
2021/03/16 01:28:46;;;;;;;1.7;0.9;;;;;;;;;;;;;
2021/03/16 01:31:12;;;;;;;0.6;0.6;;;;;;;;;;;;;
2021/03/16 01:33:37;;;;;;;1.3;0.7;;;;;;;;;;;;;
2021/03/16 01:36:02;;;;;;;0.7;0.7;;;;;;;;;;;;;
2021/03/16 01:38:27;;;;;;;0.5;0.5;;;;;;;;;;;;;
2021/03/16 01:40:52;;;;;;;1.4;0.9;;;;;;;;;;;;;
2021/03/16 01:43:17;;;;;;;0.5;0.5;;;;;;;;;;;;;
2021/03/16 01:45:44;;;;;;;2.9;1;;;;;;;;;;;;;
2021/03/16 01:48:09;;;;;;;0.4;0.4;;;;;;;;;;;;;
2021/03/16 01:50:36;;;;;;;0.3;0.3;;;;;;;;;;;;;
2021/03/16 01:53:01;;;;;;;0.4;0.4;;;;;;;;;;;;;
2021/03/16 01:55:26;;;;;;;0.2;0.2;;;;;;;;;;;;;
2021/03/16 01:57:51;;;;;;;0.2;0.2;;;;;;;;;;;;;
2021/03/16 02:00:18;;;;;;;0.1;0.1;;;;;;;;;;;;;
2021/03/16 02:02:43;;;;;;;0.1;0.1;;;;;;;;;;;;;
2021/03/16 02:05:10;;;;;;;0.1;0.1;;;;;;;;;;;;;
2021/03/16 02:07:35;;;;;;;0.2;0.2;;;;;;;;;;;;;
2021/03/16 02:10:01;;;;;;;0.3;0.3;;;;;;;;;;;;;
2021/03/16 02:12:26;;;;;;;0.2;0.2;;;;;;;;;;;;;
2021/03/16 02:14:51;;;;;;;0.4;0.4;;;;;;;;;;;;;
2021/03/16 02:17:16;;;;;;;0.4;0.4;;;;;;;;;;;;;
2021/03/16 02:19:41;;;;;;;0.4;0.4;;;;;;;;;;;;;
2021/03/16 02:22:06;;;;;;;0.6;0.5;;;;;;;;;;;;;
2021/03/16 02:24:31;;;;;;;0.5;0.4;;;;;;;;;;;;;
2021/03/16 02:26:56;;;;;;;0.2;0.2;;;;;;;;;;;;;
2021/03/16 02:29:22;;;;;;;0.6;0.4;;;;;;;;;;;;;
2021/03/16 02:31:47;;;;;;;0.3;0.3;;;;;;;;;;;;;
2021/03/16 02:34:12;;;;;;;1.1;0.9;;;;;;;;;;;;;
2021/03/16 02:36:37;;;;;;;0.4;0.4;;;;;;;;;;;;;
2021/03/16 02:39:03;;;;;;;2.3;0.5;;;;;;;;;;;;;
2021/03/16 02:41:28;;;;;;;0.7;0.5;;;;;;;;;;;;;
2021/03/16 02:43:54;;;;;;;0.3;0.3;;;;;;;;;;;;;
2021/03/16 02:46:19;;;;;;;2.2;0.5;;;;;;;;;;;;;
2021/03/16 02:48:44;;;;;;;0.7;0.6;;;;;;;;;;;;;
2021/03/16 02:51:09;;;;;;;0.4;0.4;;;;;;;;;;;;;
2021/03/16 02:53:36;;;;;;;0.8;0.6;;;;;;;;;;;;;
2021/03/16 02:56:01;;;;;;;4.4;1;;;;;;;;;;;;;
2021/03/16 02:58:26;;;;;;;0.4;0.4;;;;;;;;;;;;;
2021/03/16 03:00:52;;;;;;;0.4;0.4;;;;;;;;;;;;;
2021/03/16 03:03:17;;;;;;;0.3;0.3;;;;;;;;;;;;;
2021/03/16 03:05:42;;;;;;;0.7;0.6;;;;;;;;;;;;;
2021/03/16 03:08:07;;;;;;;0.6;0.5;;;;;;;;;;;;;
2021/03/16 03:10:32;;;;;;;0.3;0.3;;;;;;;;;;;;;
2021/03/16 03:12:57;;;;;;;1.7;0.9;;;;;;;;;;;;;
2021/03/16 03:15:23;;;;;;;0.9;0.7;;;;;;;;;;;;;
2021/03/16 03:17:48;;;;;;;0.7;0.7;;;;;;;;;;;;;
2021/03/16 03:20:14;;;;;;;0.7;0.6;;;;;;;;;;;;;
2021/03/16 03:22:39;;;;;;;0.7;0.6;;;;;;;;;;;;;
2021/03/16 03:25:05;;;;;;;0.5;0.5;;;;;;;;;;;;;
2021/03/16 03:27:31;;;;;;;1.1;0.8;;;;;;;;;;;;;
2021/03/16 03:29:56;;;;;;;2;1.3;;;;;;;;;;;;;
2021/03/16 03:32:21;;;;;;;1.8;1;;;;;;;;;;;;;
2021/03/16 03:34:46;;;;;;;0.7;0.7;;;;;;;;;;;;;
2021/03/16 03:37:11;;;;;;;0.7;0.6;;;;;;;;;;;;;
2021/03/16 03:39:36;;;;;;;0.5;0.4;;;;;;;;;;;;;
2021/03/16 03:42:02;;;;;;;1.9;0.8;;;;;;;;;;;;;
2021/03/16 03:44:27;;;;;;;0.4;0.4;;;;;;;;;;;;;
2021/03/16 03:46:53;;;;;;;0.5;0.5;;;;;;;;;;;;;
2021/03/16 03:49:18;;;;;;;6.9;4.2;;;;;;;;;;;;;
2021/03/16 03:51:44;;;;;;;1.6;1;;;;;;;;;;;;;
2021/03/16 03:54:09;;;;;;;0.5;0.5;;;;;;;;;;;;;
2021/03/16 03:56:34;;;;;;;1.8;0.7;;;;;;;;;;;;;
2021/03/16 03:58:59;;;;;;;1;0.8;;;;;;;;;;;;;
2021/03/16 04:02:30;;;;;;;0.9;0.5;;;;;;;2.41;87.04688;938.0934;;;;
2021/03/16 04:04:55;;;;;;;0.5;0.5;;;;;;;2.63;83.87695;938.0323;;;;
2021/03/16 04:07:22;;;;;;;0.7;0.6;;;;;;;2.8;82.27344;938.1207;;;;
2021/03/16 04:09:47;;;;;;;1;0.8;;;;;;;2.92;83.82129;938.2001;;;;
2021/03/16 04:12:14;;;;;;;0.8;0.5;;;;;;;2.9;84.94922;938.1916;;;;
2021/03/16 04:14:39;;;;;;;0.8;0.5;;;;;;;2.93;85.19141;938.2186;;;;
2021/03/16 04:17:05;;;;;;;1.1;0.8;;;;;;;2.77;85.91016;938.1713;;;;
2021/03/16 04:19:31;;;;;;;0.5;0.5;;;;;;;2.69;86.11816;938.1785;;;;
2021/03/16 04:21:57;;;;;;;0.4;0.3;;;;;;;2.59;85.36035;938.1495;;;;
2021/03/16 04:24:22;;;;;;;0.8;0.6;;;;;;;2.28;85.06152;938.2375;;;;
2021/03/16 04:26:50;;;;;;;0.6;0.6;;;;;;;2.52;85.06348;938.3672;;;;
2021/03/16 04:29:15;;;;;;;0.5;0.5;;;;;;;2.6;85.57324;938.383;;;;
2021/03/16 04:31:42;;;;;;;0.6;0.5;;;;;;;2.64;85.20117;938.3261;;;;
2021/03/16 04:34:07;;;;;;;1.8;0.7;;;;;;;2.62;84.58984;938.3109;;;;
2021/03/16 04:36:33;;;;;;;0.7;0.7;;;;;;;2.54;82.52344;938.3853;;;;
2021/03/16 04:38:58;;;;;;;0.6;0.6;;;;;;;2.57;83.11328;938.3569;;;;
2021/03/16 04:41:25;;;;;;;0.9;0.8;;;;;;;2.7;83.03906;938.2947;;;;
2021/03/16 04:43:50;;;;;;;0.5;0.5;;;;;;;2.8;82.54199;938.3467;;;;
2021/03/16 04:46:17;;;;;;;1.8;0.5;;;;;;;2.78;83.23242;938.3879;;;;
2021/03/16 04:48:42;;;;;;;0.4;0.4;;;;;;;2.55;84.90234;938.3834;;;;
2021/03/16 04:51:09;;;;;;;0.4;0.4;;;;;;;2.64;82.90332;938.3144;;;;
2021/03/16 04:53:34;;;;;;;0.8;0.7;;;;;;;2.47;84.25879;938.3992;;;;
2021/03/16 04:56:01;;;;;;;0.9;0.7;;;;;;;2.42;85.36816;938.4153;;;;
2021/03/16 04:58:27;;;;;;;1.2;0.9;;;;;;;2.54;83.9375;938.4289;;;;
2021/03/16 05:00:53;;;;;;;1.3;0.9;;;;;;;2.39;82.31641;938.443;;;;
2021/03/16 05:03:18;;;;;;;2.9;1.2;;;;;;;2.44;81.6543;938.5128;;;;
2021/03/16 05:05:45;;;;;;;0.5;0.5;;;;;;;2.47;80.74023;938.4897;;;;
2021/03/16 05:08:10;;;;;;;2.1;1;;;;;;;2.43;81.32813;938.4811;;;;
2021/03/16 05:10:37;;;;;;;1.4;0.7;;;;;;;2.6;80.92188;938.5811;;;;
2021/03/16 05:13:02;;;;;;;6;1;;;;;;;2.64;81.44629;938.6389;;;;
2021/03/16 05:15:42;;;;;;;4.1;1.1;;;;;;;2.56;83.14453;938.6708;;;;
2021/03/16 05:18:08;;;;;;;3;0.6;;;;;;;2.43;82.67188;938.6035;;;;
2021/03/16 05:20:33;;;;;;;0.2;0.2;;;;;;;2.32;82.4248;938.7944;;;;
2021/03/16 05:23:00;;;;;;;0.6;0.4;;;;;;;2.15;82.88672;938.7777;;;;
2021/03/16 05:25:25;;;;;;;0.6;0.6;;;;;;;1.95;84.94922;938.8208;;;;
2021/03/16 05:27:53;;;;;;;1.6;0.6;;;;;;;1.86;84.69824;938.8642;;;;
2021/03/16 05:30:18;;;;;;;0.5;0.5;;;;;;;1.77;86.31152;938.9078;;;;
2021/03/16 05:32:45;;;;;;;0.4;0.4;;;;;;;1.68;87.57031;938.9317;;;;
2021/03/16 05:35:12;;;;;;;1.3;0.7;;;;;;;1.7;87.98535;938.8523;;;;
2021/03/16 05:37:37;;;;;;;0.4;0.4;;;;;;;1.72;88.30469;938.9348;;;;
2021/03/16 05:40:05;;;;;;;0.4;0.4;;;;;;;1.61;88.15918;938.9851;;;;
2021/03/16 05:42:30;;;;;;;0.5;0.4;;;;;;;1.61;86.54883;938.9709;;;;
2021/03/16 05:44:57;;;;;;;2.6;0.6;;;;;;;1.62;86.53906;938.9109;;;;
2021/03/16 05:47:21;;;;;;;2.6;0.6;;;;;;;1.75;85.74902;938.9511;;;;
2021/03/16 05:49:46;;;;;;;0.8;0.6;;;;;;;1.55;85.84082;938.9128;;;;
2021/03/16 05:52:12;;;;;;;0.8;0.8;;;;;;;1.52;86.8877;938.9409;;;;
2021/03/16 05:54:37;;;;;;;0.4;0.4;;;;;;;1.63;86.63086;938.9734;;;;
2021/03/16 05:57:02;;;;;;;0.3;0.3;;;;;;;1.61;84.88477;938.8745;;;;
2021/03/16 05:59:27;;;;;;;0.4;0.4;;;;;;;1.83;85.14941;938.9437;;;;
2021/03/16 06:01:53;;;;;;;0.8;0.6;;;;;;;1.93;84.99219;938.8557;;;;
2021/03/16 06:04:18;;;;;;;0.5;0.5;;;;;;;2.01;85.3877;938.8928;;;;
2021/03/16 06:06:45;;;;;;;1.3;0.6;;;;;;;1.93;85.71582;938.9612;;;;
2021/03/16 06:09:10;;;;;;;0.6;0.5;;;;;;;1.91;85.61328;939.0303;;;;
2021/03/16 06:11:36;;;;;;;0.4;0.4;;;;;;;1.87;84.96875;939.0955;;;;
2021/03/16 06:14:02;;;;;;;1.6;0.9;;;;;;;1.84;85.55469;939.0588;;;;
2021/03/16 06:16:31;;;;;;;1.4;0.8;;;;;;;1.82;85.96484;939.0291;;;;
2021/03/16 06:18:57;;;;;;;1.5;0.6;;;;;;;2;86.08008;939.0154;;;;
2021/03/16 06:21:25;;;;;;;1.7;1;;;;;;;2.22;85.39551;939.1578;;;;
2021/03/16 06:23:50;;;;;;;1.4;0.6;;;;;;;2.38;84.47656;939.0972;;;;
2021/03/16 06:26:15;;;;;;;1.1;1;;;;;;;2.57;83.8418;939.2621;;;;
2021/03/16 06:28:40;;;;;;;3.2;1.6;;;;;;;2.54;84.28418;939.3233;;;;
2021/03/16 06:31:06;;;;;;;1.6;1;;;;;;;2.47;85.32324;939.2456;;;;
2021/03/16 06:33:31;;;;;;;1.1;0.9;;;;;;;2.67;84.87012;939.415;;;;
2021/03/16 06:35:56;;;;;;;1.5;1;;;;;;;2.69;84.73926;939.5119;;;;
2021/03/16 06:38:21;;;;;;;1.3;1;;;;;;;2.49;85.41699;939.5103;;;;
2021/03/16 06:40:46;;;;;;;1.1;0.8;;;;;;;2.48;85.12402;939.627;;;;
2021/03/16 06:43:12;;;;;;;1.3;0.7;;;;;;;2.51;84.64746;939.6598;;;;
2021/03/16 06:45:39;;;;;;;1;0.9;;;;;;;2.63;84.09863;939.6555;;;;
2021/03/16 06:48:03;;;;;;;2.2;0.9;;;;;;;2.4;84.80469;939.6909;;;;
2021/03/16 06:50:28;;;;;;;1.1;0.9;;;;;;;2.63;84.89648;939.7664;;;;
2021/03/16 06:52:53;;;;;;;4.1;1.3;;;;;;;2.8;84.89551;939.7889;;;;
2021/03/16 06:55:18;;;;;;;3.3;1.2;;;;;;;2.8;83.5166;939.6986;;;;
2021/03/16 06:57:46;;;;;;;2.1;1.5;;;;;;;2.92;81.06055;939.7816;;;;
2021/03/16 07:00:10;;;;;;;2.6;1.2;;;;;;;3.11;80.73926;939.7242;;;;
2021/03/16 07:02:37;;;;;;;2.3;1.4;;;;;;;3.36;80.61719;939.7594;;;;
2021/03/16 07:05:02;;;;;;;1.2;0.9;;;;;;;3.41;81.03125;939.8861;;;;
2021/03/16 07:07:28;;;;;;;0.8;0.8;;;;;;;3.19;80.49609;939.9202;;;;
2021/03/16 07:09:54;;;;;;;0.6;0.6;;;;;;;2.99;81.00684;939.9063;;;;
2021/03/16 07:12:21;;;;;;;1.1;0.9;;;;;;;3.27;81.34277;939.8552;;;;
2021/03/16 07:14:45;;;;;;;1.1;0.8;;;;;;;3.37;80.27246;939.7804;;;;
2021/03/16 07:17:10;;;;;;;2.1;0.7;;;;;;;3.52;79.01953;939.8044;;;;
2021/03/16 07:19:35;;;;;;;5.3;0.6;;;;;;;3.47;78.42676;939.8489;;;;
2021/03/16 07:22:00;;;;;;;1.5;1;;;;;;;3.56;79.03906;939.943;;;;
2021/03/16 07:24:25;;;;;;;1.7;0.7;;;;;;;3.63;79.25488;939.9617;;;;
2021/03/16 07:26:53;;;;;;;0.6;0.6;;;;;;;3.58;79.2334;939.9326;;;;
2021/03/16 07:29:17;;;;;;;0.9;0.8;;;;;;;3.55;79.74512;940.0385;;;;
2021/03/16 07:31:44;;;;;;;1;0.8;;;;;;;2.78;81.54102;940.0864;;;;
2021/03/16 07:34:08;;;;;;;1.2;0.8;;;;;;;3;81.50195;940.0545;;;;
2021/03/16 07:36:34;;;;;;;3;1;;;;;;;3.17;80.41504;940.1563;;;;
2021/03/16 07:38:59;;;;;;;1;0.9;;;;;;;3.27;80.64648;940.2209;;;;
2021/03/16 07:41:25;;;;;;;0.7;0.7;;;;;;;3.07;78.68848;940.1803;;;;
2021/03/16 07:43:50;;;;;;;1.3;1;;;;;;;3.12;79.5293;940.2083;;;;
2021/03/16 07:46:16;;;;;;;0.9;0.8;;;;;;;3.16;78.90723;940.1699;;;;
2021/03/16 07:48:41;;;;;;;0.8;0.8;;;;;;;3.23;78.89844;940.2753;;;;
2021/03/16 07:51:06;;;;;;;2.2;1.4;;;;;;;3.28;79.41211;940.3472;;;;
2021/03/16 07:53:31;;;;;;;3.4;2.3;;;;;;;3.1;82.23047;940.5122;;;;
2021/03/16 07:55:56;;;;;;;3.6;2.2;;;;;;;2.97;83.03418;940.5881;;;;
2021/03/16 07:58:21;;;;;;;7.1;2.2;;;;;;;2.93;83.87891;940.7078;;;;
2021/03/16 08:00:47;;;;;;;4.4;0.9;;;;;;;2.94;82.38965;940.5711;;;;
2021/03/16 08:03:12;;;;;;;1.1;0.9;;;;;;;3.12;81.59375;940.5899;;;;
2021/03/16 08:05:37;;;;;;;6;1;;;;;;;3.32;81.73438;940.6692;;;;
2021/03/16 08:08:02;;;;;;;1;0.9;;;;;;;3.2;82.45117;940.762;;;;
2021/03/16 08:10:27;;;;;;;1.6;0.9;;;;;;;2.96;83.3125;940.7474;;;;
2021/03/16 08:12:53;;;;;;;2;1.4;;;;;;;2.99;84.62109;940.7889;;;;
2021/03/16 08:15:18;;;;;;;0.8;0.8;;;;;;;3.25;83.24609;940.7183;;;;
2021/03/16 08:17:44;;;;;;;4.3;2.6;;;;;;;3.42;82.49316;940.8245;;;;
2021/03/16 08:20:09;;;;;;;0.4;0.4;;;;;;;3.19;77.24121;940.7816;;;;
2021/03/16 08:22:34;;;;;;;1.2;0.7;;;;;;;2.97;79.42188;940.7193;;;;
2021/03/16 08:25:00;;;;;;;0.6;0.6;;;;;;;3.04;81.53516;940.7576;;;;
2021/03/16 08:27:25;;;;;;;1.6;1;;;;;;;3.42;79.95508;940.7473;;;;
2021/03/16 08:29:52;;;;;;;2.3;0.9;;;;;;;3.7;79.7832;940.8081;;;;
2021/03/16 08:32:17;;;;;;;1.4;0.8;;;;;;;3.97;80.48828;940.8192;;;;
2021/03/16 08:34:44;;;;;;;1;0.7;;;;;;;4.53;77.70996;940.75;;;;
2021/03/16 08:37:09;;;;;;;8.5;0.9;;;;;;;4.66;73.75684;940.7927;;;;
2021/03/16 08:39:37;;;;;;;0.4;0.4;;;;;;;3.77;75.13281;940.7749;;;;
2021/03/16 08:42:02;;;;;;;1.6;0.8;;;;;;;3.77;77.5166;940.8199;;;;
2021/03/16 08:44:27;;;;;;;0.4;0.4;;;;;;;3.98;77.14844;940.7728;;;;
2021/03/16 08:46:52;;;;;;;1.2;0.5;;;;;;;4.09;74.68262;940.8081;;;;
2021/03/16 08:49:17;;;;;;;0.4;0.4;;;;;;;3.7;74.53516;940.8334;;;;
2021/03/16 08:51:42;;;;;;;1;0.8;;;;;;;3.71;77.02051;940.8419;;;;
2021/03/16 08:54:07;;;;;;;0.8;0.8;;;;;;;3.88;78.05371;940.8299;;;;
2021/03/16 08:56:33;;;;;;;1;0.9;;;;;;;3.96;78.35938;940.7668;;;;
2021/03/16 08:58:59;;;;;;;1;0.8;;;;;;;3.88;76.82715;940.7919;;;;
2021/03/16 09:01:27;;;;;;;0.4;0.4;;;;;;;3.88;76.27734;940.8378;;;;
2021/03/16 09:03:53;;;;;;;1.7;0.6;;;;;;;4;75.82617;940.9299;;;;
2021/03/16 09:06:17;;;;;;;0.8;0.8;;;;;;;4.05;77.24219;940.9761;;;;
2021/03/16 09:08:42;;;;;;;2;0.6;;;;;;;3.87;78.90527;940.9263;;;;
2021/03/16 09:11:07;;;;;;;1.2;1.1;;;;;;;3.84;79.27051;940.9953;;;;
2021/03/16 09:13:32;;;;;;;0.9;0.8;;;;;;;4.08;79.71973;940.9794;;;;
2021/03/16 09:16:06;;;;;;;0.7;0.6;;;;;;;4.37;77.82617;941.0206;;;;
2021/03/16 09:18:33;;;;;;;1.5;1.3;;;;;;;4.27;78.2373;940.9974;;;;
2021/03/16 09:20:57;;;;;;;2.2;1.2;;;;;;;4.37;78.2207;941.0954;;;;
2021/03/16 09:23:22;;;;;;;1;0.8;;;;;;;4.05;77.82617;941.0156;;;;
2021/03/16 09:25:47;;;;;;;0.4;0.4;;;;;;;4.44;76.97461;941.0148;;;;
2021/03/16 09:28:12;;;;;;;1;0.8;;;;;;;4.49;76.78027;941.079;;;;
2021/03/16 09:30:37;;;;;;;0.8;0.7;;;;;;;4.86;74.81836;940.9989;;;;
2021/03/16 09:33:03;;;;;;;0.6;0.6;;;;;;;5.18;75.26855;941.0883;;;;
2021/03/16 09:35:29;;;;;;;0.5;0.4;;;;;;;5.13;73.08398;941.1023;;;;
2021/03/16 09:37:54;;;;;;;0.8;0.6;;;;;;;4.72;75.2207;941.1473;;;;
2021/03/16 09:40:19;;;;;;;0.4;0.4;;;;;;;4.14;76.23242;941.1393;;;;
2021/03/16 09:42:45;;;;;;;1.9;0.7;;;;;;;4.18;75.85645;941.0895;;;;
2021/03/16 09:45:11;;;;;;;0.4;0.4;;;;;;;4.29;75.79883;940.9734;;;;
2021/03/16 09:47:36;;;;;;;0.4;0.4;;;;;;;4.38;75.75684;941.0879;;;;
2021/03/16 09:50:01;;;;;;;0.7;0.5;;;;;;;4.49;74.81934;941.0953;;;;
2021/03/16 09:52:26;;;;;;;0.4;0.4;;;;;;;4.21;75.54785;941.1456;;;;
2021/03/16 09:54:51;;;;;;;0.7;0.4;;;;;;;4.47;75.08789;941.0938;;;;
2021/03/16 09:57:16;;;;;;;0.6;0.4;;;;;;;4.33;75.46777;941.109;;;;
2021/03/16 09:59:42;;;;;;;0.5;0.5;;;;;;;4.56;75.08008;941.0868;;;;
2021/03/16 10:02:08;;;;;;;0.6;0.5;;;;;;;4.74;74.49316;941.0709;;;;
2021/03/16 10:04:33;;;;;;;0.7;0.5;;;;;;;4.89;74.11523;941.1097;;;;
2021/03/16 10:06:58;;;;;;;0.8;0.6;;;;;;;4.79;73.00293;941.1128;;;;
2021/03/16 10:09:25;;;;;;;1.4;0.7;;;;;;;4.68;73.10742;941.0622;;;;
2021/03/16 10:11:48;;;;;;;0.5;0.5;;;;;;;4.36;74.92285;941.1448;;;;
2021/03/16 10:14:14;;;;;;;0.7;0.6;;;;;;;4.38;71.88574;941.2305;;;;
2021/03/16 10:16:40;;;;;;;0.7;0.5;;;;;;;4.48;72.81543;941.0999;;;;
2021/03/16 10:19:05;;;;;;;0.9;0.7;;;;;;;4.5;74.52832;941.3038;;;;
2021/03/16 10:21:30;;;;;;;2.6;0.8;;;;;;;4.19;75.02637;941.312;;;;
2021/03/16 10:23:56;;;;;;;0.7;0.6;;;;;;;4.46;76.09766;941.1336;;;;
2021/03/16 10:26:21;;;;;;;0.6;0.5;;;;;;;4.79;74.20898;941.2485;;;;
2021/03/16 10:28:46;;;;;;;3.2;0.8;;;;;;;4.97;73.91309;941.3412;;;;
2021/03/16 10:31:11;;;;;;;0.6;0.4;;;;;;;4.99;73.75684;941.348;;;;
2021/03/16 10:33:36;;;;;;;1;0.7;;;;;;;5.27;73.78418;941.3049;;;;
2021/03/16 10:36:02;;;;;;;2.4;1;;;;;;;4.67;75.79688;941.3773;;;;
2021/03/16 10:38:28;;;;;;;1.2;0.9;;;;;;;4.74;76.45215;941.2664;;;;
2021/03/16 10:40:53;;;;;;;0.6;0.5;;;;;;;5;75.63086;941.4281;;;;
2021/03/16 10:43:18;;;;;;;1.6;0.9;;;;;;;4.53;74.68066;941.4476;;;;
2021/03/16 10:45:45;;;;;;;0.9;0.4;;;;;;;4.43;72.01953;941.4482;;;;
2021/03/16 10:48:10;;;;;;;0.3;0.3;;;;;;;4.53;73.33008;941.507;;;;
2021/03/16 10:50:35;;;;;;;1.7;0.6;;;;;;;4.63;72.97363;941.4011;;;;
2021/03/16 10:53:01;;;;;;;0.7;0.6;;;;;;;4.76;74.24902;941.4329;;;;
2021/03/16 10:55:26;;;;;;;1.1;0.8;;;;;;;4.51;75.02637;941.5589;;;;
2021/03/16 10:57:54;;;;;;;1.3;0.7;;;;;;;4.51;75.11719;941.5393;;;;
2021/03/16 11:00:19;;;;;;;0.5;0.4;;;;;;;4.72;74.97363;941.5037;;;;
2021/03/16 11:02:44;;;;;;;0.4;0.4;;;;;;;4.84;73.68848;941.5251;;;;
2021/03/16 11:05:09;;;;;;;0.9;0.8;;;;;;;4.65;74.47656;941.5659;;;;
2021/03/16 11:07:34;;;;;;;0.4;0.4;;;;;;;4.69;74.16895;941.5414;;;;
2021/03/16 11:09:59;;;;;;;1.3;1;;;;;;;4.63;73.91016;941.5227;;;;
2021/03/16 11:12:26;;;;;;;0.4;0.4;;;;;;;4.97;72.78613;941.5211;;;;
2021/03/16 11:14:51;;;;;;;1.5;0.8;;;;;;;4.77;71.41113;941.5208;;;;
2021/03/16 11:17:18;;;;;;;1.1;0.7;;;;;;;4.82;71.91602;941.5181;;;;
2021/03/16 11:19:43;;;;;;;1.5;1.1;;;;;;;5.06;73.21875;941.4733;;;;
2021/03/16 11:22:09;;;;;;;1.1;0.6;;;;;;;4.99;71.49414;941.4817;;;;
2021/03/16 11:24:35;;;;;;;0.5;0.4;;;;;;;5.28;70.36816;941.4573;;;;
2021/03/16 11:27:01;;;;;;;0.8;0.7;;;;;;;5.75;69.38574;941.4494;;;;
2021/03/16 11:29:25;;;;;;;1.7;0.9;;;;;;;5.75;69.90332;941.4792;;;;
2021/03/16 11:31:52;;;;;;;0.8;0.6;;;;;;;6.13;69.20898;941.5023;;;;
2021/03/16 11:34:17;;;;;;;0.7;0.7;;;;;;;6.31;68.00586;941.4442;;;;
2021/03/16 11:36:42;;;;;;;0.4;0.4;;;;;;;6.93;63.1123;941.3557;;;;
2021/03/16 11:39:07;;;;;;;0.6;0.4;;;;;;;7;59.89453;941.3592;;;;
2021/03/16 11:41:33;;;;;;;0.9;0.6;;;;;;;6.91;60.87793;941.4231;;;;
2021/03/16 11:43:58;;;;;;;1;0.8;;;;;;;6.2;60.26855;941.3155;;;;
2021/03/16 11:46:25;;;;;;;1;0.8;;;;;;;5.93;66.46582;941.3899;;;;
2021/03/16 11:48:50;;;;;;;0.6;0.6;;;;;;;5.84;68.13574;941.4445;;;;
2021/03/16 11:51:16;;;;;;;0.7;0.5;;;;;;;5.96;68.71777;941.447;;;;
2021/03/16 11:53:41;;;;;;;4.8;1;;;;;;;6.97;65.24512;941.3448;;;;
2021/03/16 11:56:07;;;;;;;1.4;0.7;;;;;;;7.76;61.33789;941.457;;;;
2021/03/16 11:58:33;;;;;;;3.9;0.9;;;;;;;7.57;59.12305;941.3933;;;;
2021/03/16 12:00:58;;;;;;;0.5;0.5;;;;;;;6.54;58.99316;941.4397;;;;
2021/03/16 12:03:23;;;;;;;0.2;0.2;;;;;;;6.06;59.75195;941.3928;;;;
2021/03/16 12:05:48;;;;;;;1.4;0.5;;;;;;;6.27;63.10352;941.3535;;;;
2021/03/16 12:08:14;;;;;;;0.4;0.4;;;;;;;6.39;62.19434;941.324;;;;
2021/03/16 12:10:38;;;;;;;1.2;0.7;;;;;;;6.68;60.49512;941.247;;;;
2021/03/16 12:13:04;;;;;;;0.2;0.2;;;;;;;6.96;61.61035;941.1878;;;;
2021/03/16 12:15:43;;;;;;;0.7;0.6;;;;;;;7.69;59.18652;941.1398;;;;
2021/03/16 12:18:08;;;;;;;0.4;0.4;;;;;;;8.27;55.55078;941.0641;;;;
2021/03/16 12:20:33;;;;;;;0.4;0.4;;;;;;;8.72;56.22266;941.003;;;;
2021/03/16 12:23:00;;;;;;;0.3;0.3;;;;;;;8.74;56.5332;941.0044;;;;
2021/03/16 12:25:25;;;;;;;0.5;0.4;;;;;;;8.53;56.12988;940.9671;;;;
2021/03/16 12:27:52;;;;;;;1.2;0.6;;;;;;;8.39;57.94141;940.8844;;;;
2021/03/16 12:30:16;;;;;;;0.4;0.4;;;;;;;8.66;56.7041;940.8892;;;;
2021/03/16 12:32:42;;;;;;;0.7;0.6;;;;;;;7.79;57.85938;941.0527;;;;
2021/03/16 12:35:08;;;;;;;4.8;0.7;;;;;;;7.84;59.5127;940.9852;;;;
2021/03/16 12:37:33;;;;;;;0.3;0.3;;;;;;;7.69;61.23633;941.0961;;;;
2021/03/16 12:40:00;;;;;;;0.7;0.6;;;;;;;7.05;63.83105;941.116;;;;
2021/03/16 12:42:25;;;;;;;0.3;0.3;;;;;;;6.39;66.61621;941.2885;;;;
2021/03/16 12:44:51;;;;;;;0.8;0.7;;;;;;;5.84;68.26953;941.3369;;;;
2021/03/16 12:47:16;;;;;;;0.8;0.6;;;;;;;5.83;68.58398;941.2893;;;;
2021/03/16 12:49:42;;;;;;;1.2;0.6;;;;;;;5.56;66.90625;941.3669;;;;
2021/03/16 12:52:07;;;;;;;0.3;0.3;;;;;;;5.13;69.0918;941.4124;;;;
2021/03/16 12:54:33;;;;;;;1.6;0.8;;;;;;;4.73;72.48535;941.494;;;;
2021/03/16 12:56:58;;;;;;;0.3;0.3;;;;;;;4.63;74.85645;941.6072;;;;
2021/03/16 12:59:24;;;;;;;0.2;0.2;;;;;;;4.33;77.49316;941.6292;;;;
2021/03/16 13:01:50;;;;;;;0.7;0.5;;;;;;;4.52;76.13184;941.6437;;;;
2021/03/16 13:04:17;;;;;;;0.5;0.4;;;;;;;4.3;76.49805;941.5698;;;;
2021/03/16 13:06:42;;;;;;;1.6;0.3;;;;;;;4.37;77.36523;941.6315;;;;
2021/03/16 13:09:08;;;;;;;0.3;0.2;;;;;;;4.58;76.94141;941.6364;;;;
2021/03/16 13:11:33;;;;;;;0.4;0.4;;;;;;;4.46;76.35645;941.6303;;;;
2021/03/16 13:14:02;;;;;;;0.3;0.3;;;;;;;4.09;77.02344;941.679;;;;
2021/03/16 13:16:30;;;;;;;0.3;0.3;;;;;;;3.94;77.82715;941.7051;;;;
2021/03/16 13:18:57;;;;;;;0.2;0.2;;;;;;;3.76;77.92969;941.5745;;;;
2021/03/16 13:21:22;;;;;;;2.6;0.6;;;;;;;3.75;79.27637;941.4253;;;;
2021/03/16 13:23:48;;;;;;;0.4;0.4;;;;;;;3.96;78.76367;941.541;;;;
2021/03/16 13:26:13;;;;;;;0.3;0.3;;;;;;;4.4;77.49316;941.5878;;;;
2021/03/16 13:28:42;;;;;;;0.2;0.2;;;;;;;4.23;73.3916;941.5292;;;;
2021/03/16 13:31:07;;;;;;;0.1;0.1;;;;;;;4.32;70.78418;941.603;;;;
2021/03/16 13:33:33;;;;;;;0.6;0.2;;;;;;;5.02;70.3252;941.6114;;;;
2021/03/16 13:35:58;;;;;;;1.4;0.4;;;;;;;5.17;70.28418;941.6058;;;;
2021/03/16 13:38:27;;;;;;;0.2;0.2;;;;;;;6.56;65.7832;941.5059;;;;
2021/03/16 13:40:52;;;;;;;0.3;0.2;;;;;;;7.54;62.35156;941.5377;;;;
2021/03/16 13:43:18;;;;;;;1.1;0.2;;;;;;;7.69;59.80762;941.5193;;;;
2021/03/16 13:45:43;;;;;;;0.2;0.2;;;;;;;8.38;57.86035;941.4642;;;;
2021/03/16 13:48:10;;;;;;;0.1;0.1;;;;;;;8.33;59.08105;941.4906;;;;
2021/03/16 13:50:35;;;;;;;0.5;0.2;;;;;;;8.31;58.14648;941.5217;;;;
2021/03/16 13:53:01;;;;;;;0.4;0.4;;;;;;;7.83;60.92969;941.5311;;;;
2021/03/16 13:55:26;;;;;;;1.9;1.3;;;;;;;7.23;64.19629;941.5154;;;;
2021/03/16 13:57:52;;;;;;;0.8;0.6;;;;;;;6.95;64.54199;941.4765;;;;
2021/03/16 14:00:17;;;;;;;1.3;0.9;;;;;;;7.36;65.30469;941.3692;;;;
2021/03/16 14:02:44;;;;;;;0.7;0.5;;;;;;;8.63;59.43945;941.3981;;;;
2021/03/16 14:05:09;;;;;;;0.3;0.2;;;;;;;10.04;55.78027;941.3871;;;;
2021/03/16 14:07:34;;;;;;;0.3;0.3;;;;;;;10.82;51.49219;941.2695;;;;
2021/03/16 14:10:00;;;;;;;0.5;0.3;;;;;;;11.2;49.95898;941.1238;;;;
2021/03/16 14:12:25;;;;;;;0;0;;;;;;;11.77;47.16309;941.1848;;;;
2021/03/16 14:14:51;;;;;;;0.2;0.1;;;;;;;10.64;47.72461;941.1227;;;;
2021/03/16 14:17:16;;;;;;;0.4;0.4;;;;;;;8.48;54.67969;941.15;;;;
2021/03/16 14:19:42;;;;;;;0.7;0.4;;;;;;;8.2;55.68945;941.0859;;;;
2021/03/16 14:22:07;;;;;;;0.8;0.5;;;;;;;8.17;56.19727;941.0765;;;;
2021/03/16 14:24:32;;;;;;;1;0.7;;;;;;;8.08;57.58203;941.0856;;;;
2021/03/16 14:26:59;;;;;;;0.4;0.3;;;;;;;8.17;58.64844;941.0923;;;;
2021/03/16 14:29:25;;;;;;;0.2;0.2;;;;;;;7.78;59.59473;941.1255;;;;
2021/03/16 14:31:51;;;;;;;1.1;0.5;;;;;;;7.38;61.39648;941.1939;;;;
2021/03/16 14:34:16;;;;;;;2.9;0.2;;;;;;;7.19;63.55762;941.2076;;;;
2021/03/16 14:36:42;;;;;;;0.5;0.5;;;;;;;6.77;62.19336;941.2859;;;;
2021/03/16 14:39:07;;;;;;;1;0.3;;;;;;;6.49;64.03125;941.3021;;;;
2021/03/16 14:41:33;;;;;;;0.4;0.4;;;;;;;6.35;64.04395;941.2761;;;;
2021/03/16 14:43:58;;;;;;;0.5;0.3;;;;;;;6.46;63.49414;941.2775;;;;
2021/03/16 14:46:25;;;;;;;0.3;0.3;;;;;;;6.45;64.7373;941.3104;;;;
2021/03/16 14:48:50;;;;;;;0.5;0.5;;;;;;;6.32;64.21875;941.3519;;;;
2021/03/16 14:51:16;;;;;;;0.4;0.4;;;;;;;5.78;66.31836;941.5656;;;;
2021/03/16 14:53:41;;;;;;;2.6;0.7;;;;;;;5.32;68.80664;941.6372;;;;
2021/03/16 14:56:07;;;;;;;0.5;0.5;;;;;;;4.94;71.27148;941.7261;;;;
2021/03/16 14:58:32;;;;;;;0.3;0.3;;;;;;;4.85;72.30371;941.8222;;;;
2021/03/16 15:00:58;;;;;;;0.5;0.5;;;;;;;4.07;76.23242;941.82;;;;
2021/03/16 15:03:24;;;;;;;0.3;0.3;;;;;;;3.77;78.25684;941.9302;;;;
2021/03/16 15:05:50;;;;;;;2.1;0.7;;;;;;;3.35;80.73926;941.9067;;;;
2021/03/16 15:08:15;;;;;;;0.6;0.6;;;;;;;3.27;82.35156;941.8883;;;;
2021/03/16 15:10:44;;;;;;;1.8;0.5;;;;;;;3.1;82.8916;941.8386;;;;
2021/03/16 15:13:10;;;;;;;0.3;0.3;;;;;;;2.93;83.95801;941.7938;;;;
2021/03/16 15:15:41;;;;;;;0.1;0.1;;;;;;;2.78;84.7793;941.8395;;;;
2021/03/16 15:18:07;;;;;;;0.2;0.2;;;;;;;2.94;84.54297;941.8215;;;;
2021/03/16 15:20:32;;;;;;;0.3;0.3;;;;;;;3.02;84.57031;941.7385;;;;
2021/03/16 15:23:00;;;;;;;0.3;0.3;;;;;;;3.17;84.01758;941.7723;;;;
2021/03/16 15:25:25;;;;;;;0.2;0.2;;;;;;;3.22;83.18457;941.6841;;;;
2021/03/16 15:27:51;;;;;;;1.3;0.2;;;;;;;3.18;83.39063;941.7483;;;;
2021/03/16 15:30:16;;;;;;;0.2;0.2;;;;;;;3.28;83.36523;941.752;;;;
2021/03/16 15:32:41;;;;;;;0.7;0.6;;;;;;;3.28;83.02832;941.7245;;;;
2021/03/16 15:35:09;;;;;;;0.4;0.4;;;;;;;3.49;82.38574;941.7218;;;;
2021/03/16 15:37:34;;;;;;;315.5;160.9;;;;;;;3.59;81.37891;941.7271;;;;
2021/03/16 15:39:59;;;;;;;33.1;19.9;;;;;;;3.68;81.55566;941.6778;;;;